Time;durP1;ratioP1;P1;durP2;ratioP2;P2;SDS_P1;SDS_P2;PMS_P1;PMS_P2;Temp;Humidity;BMP_temperature;BMP_pressure;BME280_temperature;BME280_humidity;BME280_pressure;Samples;Min_cycle;Max_cycle;Signal;HPM_P1;HPM_P2
2023/04/10 00:01:42;;;;;;;11.05;9.95;;;15.70;84.60;;;;;;5032042;28;20024;-71
2023/04/10 00:04:08;;;;;;;11.57;10.40;;;15.60;84.50;;;;;;5032180;28;20060;-71
2023/04/10 00:06:34;;;;;;;12.60;11.07;;;15.60;84.70;;;;;;5031948;28;20021;-71
2023/04/10 00:08:59;;;;;;;12.05;10.90;;;15.60;84.70;;;;;;5032082;28;20030;-71
2023/04/10 00:11:26;;;;;;;13.45;11.20;;;15.50;84.90;;;;;;5031868;28;20436;-71
2023/04/10 00:13:52;;;;;;;11.32;10.23;;;15.50;84.90;;;;;;5031897;28;20032;-71
2023/04/10 00:16:18;;;;;;;12.40;11.00;;;15.50;84.80;;;;;;5032014;28;20079;-70
2023/04/10 00:18:44;;;;;;;12.35;11.13;;;15.60;85.00;;;;;;5031908;28;20064;-71
2023/04/10 00:21:09;;;;;;;12.50;10.60;;;15.50;85.20;;;;;;5031989;28;20036;-71
2023/04/10 00:23:35;;;;;;;12.38;11.07;;;15.50;85.20;;;;;;5034626;28;20022;-70
2023/04/10 00:26:01;;;;;;;12.60;11.20;;;15.50;85.50;;;;;;5035102;28;20506;-71
2023/04/10 00:28:26;;;;;;;11.77;10.57;;;15.50;85.40;;;;;;5035424;28;20156;-71
2023/04/10 00:30:52;;;;;;;11.65;10.45;;;15.50;85.70;;;;;;5035350;28;20104;-71
2023/04/10 00:33:17;;;;;;;12.43;11.23;;;15.40;85.80;;;;;;5035397;28;20029;-71
2023/04/10 00:35:43;;;;;;;13.05;10.73;;;15.50;86.20;;;;;;5035151;28;20025;-71
2023/04/10 00:38:09;;;;;;;12.00;10.32;;;15.40;85.90;;;;;;5035181;28;20069;-70
2023/04/10 00:40:34;;;;;;;13.57;9.73;;;15.40;85.90;;;;;;5035066;28;20107;-71
2023/04/10 00:43:00;;;;;;;11.82;10.38;;;15.40;86.20;;;;;;5017548;28;20081;-70
2023/04/10 00:45:26;;;;;;;12.98;10.45;;;15.40;86.20;;;;;;5035370;28;20565;-71
2023/04/10 00:47:52;;;;;;;12.02;10.88;;;15.40;86.10;;;;;;5034981;28;20021;-71
2023/04/10 00:50:19;;;;;;;10.77;9.68;;;15.40;86.60;;;;;;5035034;28;20036;-71
2023/04/10 00:52:45;;;;;;;12.60;10.57;;;15.30;86.60;;;;;;5035031;28;20072;-71
2023/04/10 00:55:10;;;;;;;10.55;9.45;;;15.30;86.60;;;;;;5034780;28;20037;-71
2023/04/10 00:57:37;;;;;;;10.55;9.52;;;15.30;86.40;;;;;;5034428;28;20045;-71
2023/04/10 01:00:03;;;;;;;11.60;10.30;;;15.30;86.50;;;;;;5034976;28;20026;-71
2023/04/10 01:02:30;;;;;;;10.15;9.15;;;15.20;86.30;;;;;;5035033;28;20029;-71
2023/04/10 01:04:56;;;;;;;10.25;9.30;;;15.20;86.40;;;;;;5034619;28;20049;-71
2023/04/10 01:07:34;;;;;;;10.80;9.45;;;15.20;86.30;;;;;;5034809;28;20061;-71
2023/04/10 01:10:19;;;;;;;11.85;9.70;;;15.20;86.40;;;;;;5034191;28;20072;-70
2023/04/10 01:13:06;;;;;;;10.20;9.00;;;15.20;86.60;;;;;;5034599;28;20132;-71
2023/04/10 01:15:42;;;;;;;11.00;9.18;;;15.20;86.20;;;;;;5034912;28;20037;-71
2023/04/10 01:18:15;;;;;;;9.95;8.68;;;15.20;86.20;;;;;;5034315;28;20051;-71
2023/04/10 01:20:41;;;;;;;12.13;9.25;;;15.10;86.10;;;;;;5034505;28;20105;-71
2023/04/10 01:23:46;;;;;;;11.25;9.95;;;15.20;86.10;;;;;;5034491;28;20017;-71
2023/04/10 01:26:16;;;;;;;10.90;9.80;;;15.10;86.30;;;;;;5034300;28;20108;-71
2023/04/10 01:28:50;;;;;;;11.27;10.07;;;15.10;86.60;;;;;;5034207;28;20140;-71
2023/04/10 01:31:20;;;;;;;11.80;9.98;;;15.10;87.40;;;;;;5034440;28;20514;-70
2023/04/10 01:33:56;;;;;;;11.63;9.68;;;15.10;86.50;;;;;;5033192;28;20021;-71
2023/04/10 01:36:27;;;;;;;10.80;9.55;;;15.10;86.20;;;;;;5034241;28;20033;-70
2023/04/10 01:38:54;;;;;;;10.50;9.40;;;15.00;86.00;;;;;;5033798;28;20088;-71
2023/04/10 01:41:21;;;;;;;10.18;9.07;;;15.00;86.10;;;;;;5034157;28;20026;-71
2023/04/10 01:43:50;;;;;;;10.13;8.90;;;15.00;86.00;;;;;;5033741;28;20439;-71
2023/04/10 01:46:18;;;;;;;9.98;8.68;;;15.00;85.90;;;;;;5034288;28;20021;-71
2023/04/10 01:48:46;;;;;;;13.50;9.23;;;15.00;86.00;;;;;;5033915;28;20075;-71
2023/04/10 01:51:13;;;;;;;10.55;9.05;;;15.00;86.10;;;;;;5034038;28;20061;-70
2023/04/10 01:53:40;;;;;;;11.45;9.05;;;15.00;86.00;;;;;;5033553;28;20025;-71
2023/04/10 01:56:07;;;;;;;10.60;8.70;;;15.00;85.90;;;;;;5033476;28;20068;-71
2023/04/10 01:58:34;;;;;;;10.05;8.20;;;15.00;85.70;;;;;;5033930;28;20083;-70
2023/04/10 02:01:00;;;;;;;10.02;8.30;;;15.00;85.60;;;;;;5033643;28;20028;-71
2023/04/10 02:03:26;;;;;;;10.05;7.82;;;14.90;85.40;;;;;;5033812;28;20029;-71
2023/04/10 02:06:01;;;;;;;11.10;7.85;;;14.90;85.40;;;;;;5033592;28;20386;-71
2023/04/10 02:08:51;;;;;;;8.45;7.47;;;14.90;85.40;;;;;;5033583;28;20068;-71
2023/04/10 02:11:51;;;;;;;8.70;7.03;;;14.90;85.30;;;;;;5033444;28;20120;-71
2023/04/10 02:14:20;;;;;;;8.93;7.10;;;14.90;85.20;;;;;;5033296;28;20044;-71
2023/04/10 02:16:48;;;;;;;8.50;6.88;;;14.90;85.30;;;;;;5033227;28;20060;-71
2023/04/10 02:19:15;;;;;;;8.30;7.05;;;14.90;85.30;;;;;;5033410;28;20021;-71
2023/04/10 02:21:41;;;;;;;9.23;7.57;;;14.90;85.20;;;;;;5033086;28;20029;-71
2023/04/10 02:24:07;;;;;;;7.50;6.80;;;14.80;85.00;;;;;;5033252;28;20087;-71
2023/04/10 02:26:49;;;;;;;8.65;6.68;;;14.80;85.10;;;;;;5033580;28;20374;-70
2023/04/10 02:29:15;;;;;;;8.65;7.25;;;14.80;85.00;;;;;;5033696;28;20032;-71
2023/04/10 02:31:41;;;;;;;7.80;6.60;;;14.80;84.80;;;;;;5033031;28;20034;-70
2023/04/10 02:34:07;;;;;;;10.27;6.70;;;14.80;84.70;;;;;;5033267;28;20021;-71
2023/04/10 02:36:37;;;;;;;9.65;6.57;;;14.80;85.20;;;;;;5032649;28;20029;-71
2023/04/10 02:39:03;;;;;;;8.55;6.68;;;14.80;84.70;;;;;;5032970;28;20076;-71
2023/04/10 02:41:29;;;;;;;8.32;6.22;;;14.70;84.50;;;;;;5032921;28;20045;-71
2023/04/10 02:43:55;;;;;;;7.65;6.20;;;14.70;84.30;;;;;;5033108;28;20018;-70
2023/04/10 02:46:20;;;;;;;6.68;5.90;;;14.70;84.20;;;;;;5032589;28;20041;-70
2023/04/10 02:48:46;;;;;;;6.72;6.03;;;14.70;84.10;;;;;;5032951;28;20072;-71
2023/04/10 02:51:12;;;;;;;6.85;6.25;;;14.70;84.20;;;;;;5032562;28;20029;-70
2023/04/10 02:53:37;;;;;;;8.80;6.13;;;14.70;84.00;;;;;;5032868;28;20018;-71
2023/04/10 02:56:05;;;;;;;11.93;7.05;;;14.60;84.00;;;;;;5032322;28;20029;-71
2023/04/10 02:58:31;;;;;;;13.52;8.55;;;14.70;84.00;;;;;;5032706;28;20033;-71
2023/04/10 03:00:56;;;;;;;16.08;9.95;;;14.70;84.00;;;;;;5032770;28;20026;-70
2023/04/10 03:03:22;;;;;;;15.35;9.43;;;14.60;83.90;;;;;;5032818;28;20029;-70
2023/04/10 03:05:48;;;;;;;13.40;8.27;;;14.70;83.90;;;;;;5032755;28;20018;-71
2023/04/10 03:08:14;;;;;;;12.55;8.32;;;14.60;83.80;;;;;;5032438;28;20496;-71
2023/04/10 03:10:42;;;;;;;11.95;7.95;;;14.60;83.70;;;;;;5032563;28;20025;-71
2023/04/10 03:13:08;;;;;;;10.98;7.53;;;14.60;83.60;;;;;;5032621;28;20055;-71
2023/04/10 03:15:33;;;;;;;8.13;6.47;;;14.70;83.60;;;;;;5032413;28;20083;-71
2023/04/10 03:17:59;;;;;;;8.40;6.40;;;14.60;83.50;;;;;;5032388;28;20052;-70
2023/04/10 03:20:24;;;;;;;8.05;6.53;;;14.60;83.50;;;;;;5032380;28;20021;-70
2023/04/10 03:22:50;;;;;;;7.47;6.35;;;14.60;83.50;;;;;;5032349;28;20025;-71
2023/04/10 03:25:16;;;;;;;7.70;5.68;;;14.60;83.50;;;;;;5032464;28;20017;-71
2023/04/10 03:27:41;;;;;;;8.15;6.63;;;14.50;83.50;;;;;;5032154;28;20037;-71
2023/04/10 03:30:07;;;;;;;7.78;6.05;;;14.50;83.50;;;;;;5032536;28;20183;-71
2023/04/10 03:32:33;;;;;;;6.30;5.50;;;14.50;83.50;;;;;;5032634;28;20029;-70
2023/04/10 03:34:58;;;;;;;6.85;5.75;;;14.50;83.50;;;;;;5032335;28;20067;-71
2023/04/10 03:37:26;;;;;;;6.68;5.90;;;14.50;83.40;;;;;;5032450;28;20482;-71
2023/04/10 03:39:52;;;;;;;6.53;5.82;;;14.40;83.30;;;;;;5032488;28;20010;-71
2023/04/10 03:42:17;;;;;;;6.30;5.70;;;14.40;83.40;;;;;;5014590;28;20056;-71
2023/04/10 03:44:43;;;;;;;6.55;5.82;;;14.40;83.30;;;;;;5032466;28;20018;-71
2023/04/10 03:47:08;;;;;;;7.35;5.90;;;14.40;83.30;;;;;;5031843;28;20021;-70
2023/04/10 03:49:34;;;;;;;6.30;5.30;;;14.40;83.40;;;;;;5006253;28;20026;-70
2023/04/10 03:52:00;;;;;;;6.82;5.38;;;14.30;83.40;;;;;;5012043;28;20087;-71
2023/04/10 03:54:25;;;;;;;6.10;5.35;;;14.40;83.40;;;;;;5012320;28;20498;-71
2023/04/10 03:56:51;;;;;;;6.00;5.40;;;14.40;83.50;;;;;;5011850;28;20141;-70
2023/04/10 03:59:16;;;;;;;6.00;5.40;;;14.30;83.40;;;;;;5015099;28;20029;-70
2023/04/10 04:01:42;;;;;;;6.65;5.97;;;14.30;83.50;;;;;;5016095;28;20030;-71
2023/04/10 04:04:07;;;;;;;8.27;5.65;;;14.30;83.80;;;;;;5015982;28;20033;-71
2023/04/10 04:06:33;;;;;;;7.00;5.60;;;14.30;83.50;;;;;;5016025;28;20149;-71
2023/04/10 04:08:59;;;;;;;5.63;5.13;;;14.30;83.40;;;;;;5016018;28;20026;-70
2023/04/10 04:11:24;;;;;;;6.95;5.32;;;14.30;83.30;;;;;;5016209;28;20033;-70
2023/04/10 04:13:50;;;;;;;7.95;6.07;;;14.30;83.40;;;;;;5015981;28;20526;-71
2023/04/10 04:16:15;;;;;;;6.65;5.82;;;14.30;83.50;;;;;;5015920;28;20044;-70
2023/04/10 04:18:41;;;;;;;8.23;5.80;;;14.30;83.80;;;;;;5015567;28;20120;-70
2023/04/10 04:21:07;;;;;;;7.93;6.03;;;14.30;84.20;;;;;;5015889;28;20061;-70
2023/04/10 04:23:33;;;;;;;7.88;6.18;;;14.20;83.50;;;;;;5015647;28;20053;-70
2023/04/10 04:25:58;;;;;;;8.38;5.85;;;14.20;83.60;;;;;;5015795;28;20049;-71
2023/04/10 04:28:24;;;;;;;7.75;5.90;;;14.20;83.50;;;;;;5015648;28;20037;-70
2023/04/10 04:30:49;;;;;;;9.43;6.63;;;14.20;83.50;;;;;;5015818;28;20022;-71
2023/04/10 04:33:15;;;;;;;7.72;6.50;;;14.20;83.50;;;;;;5015332;28;20079;-70
2023/04/10 04:35:40;;;;;;;7.90;5.97;;;14.10;83.60;;;;;;5015825;28;20481;-70
2023/04/10 04:38:06;;;;;;;8.35;6.35;;;14.20;83.60;;;;;;5015306;28;20507;-70
2023/04/10 04:40:31;;;;;;;6.88;5.68;;;14.10;83.40;;;;;;5015421;28;20026;-70
2023/04/10 04:42:57;;;;;;;7.97;5.63;;;14.20;83.40;;;;;;5015527;28;20156;-70
2023/04/10 04:45:23;;;;;;;9.75;6.25;;;14.20;83.40;;;;;;5015578;28;20018;-70
2023/04/10 04:47:49;;;;;;;7.35;5.88;;;14.10;83.40;;;;;;5015104;28;20109;-70
2023/04/10 04:50:14;;;;;;;8.40;5.40;;;14.10;83.40;;;;;;5015497;28;20152;-70
2023/04/10 04:52:40;;;;;;;8.05;6.05;;;14.10;83.50;;;;;;5015073;28;20022;-70
2023/04/10 04:55:07;;;;;;;10.95;6.28;;;14.10;83.40;;;;;;5015232;28;20022;-70
2023/04/10 04:57:32;;;;;;;8.30;6.40;;;14.10;83.40;;;;;;5015283;28;20104;-70
2023/04/10 04:59:58;;;;;;;8.57;5.55;;;14.10;83.30;;;;;;5015190;28;20489;-70
2023/04/10 05:02:24;;;;;;;8.25;5.82;;;14.10;83.50;;;;;;5011213;28;20029;-70
2023/04/10 05:04:49;;;;;;;7.80;6.00;;;14.00;83.30;;;;;;5014997;28;20028;-70
2023/04/10 05:07:15;;;;;;;9.25;5.93;;;14.00;83.10;;;;;;5014169;28;20394;-70
2023/04/10 05:09:41;;;;;;;6.95;6.00;;;14.00;83.10;;;;;;5014357;28;20026;-70
2023/04/10 05:12:06;;;;;;;6.95;5.68;;;14.00;83.30;;;;;;5015123;28;20449;-70
2023/04/10 05:14:32;;;;;;;8.02;6.47;;;14.00;83.30;;;;;;5014753;28;20084;-70
2023/04/10 05:16:57;;;;;;;6.45;5.47;;;14.00;83.10;;;;;;5014396;28;20115;-70
2023/04/10 05:19:23;;;;;;;7.35;5.70;;;14.00;83.00;;;;;;5014820;28;20422;-70
2023/04/10 05:21:48;;;;;;;6.72;5.90;;;14.00;83.10;;;;;;5014460;28;20022;-70
2023/04/10 05:24:14;;;;;;;6.90;6.00;;;14.00;83.10;;;;;;4996917;28;20083;-70
2023/04/10 05:26:41;;;;;;;6.75;5.65;;;14.00;83.40;;;;;;5013820;28;20056;-70
2023/04/10 05:29:07;;;;;;;7.72;5.88;;;13.90;83.10;;;;;;5013819;28;20026;-70
2023/04/10 05:31:32;;;;;;;6.32;5.55;;;14.00;83.20;;;;;;5014425;28;20068;-70
2023/04/10 05:33:58;;;;;;;7.88;5.88;;;14.00;83.10;;;;;;5014510;28;20033;-70
2023/04/10 05:36:23;;;;;;;8.70;6.20;;;13.90;83.00;;;;;;5014511;28;20150;-70
2023/04/10 05:38:49;;;;;;;6.28;5.68;;;13.90;83.10;;;;;;5014129;28;20026;-70
2023/04/10 05:41:15;;;;;;;6.68;5.63;;;13.90;83.00;;;;;;5014495;28;20033;-70
2023/04/10 05:43:40;;;;;;;8.35;5.88;;;13.90;83.20;;;;;;4996604;28;20030;-70
2023/04/10 05:46:06;;;;;;;7.10;5.95;;;13.90;83.10;;;;;;5014235;28;20022;-70
2023/04/10 05:48:31;;;;;;;6.35;5.60;;;13.90;83.20;;;;;;5014308;28;20415;-70
2023/04/10 05:50:57;;;;;;;5.88;5.28;;;13.90;83.20;;;;;;5013976;28;20053;-70
2023/04/10 05:53:30;;;;;;;7.43;5.57;;;13.90;83.20;;;;;;5014220;28;20029;-70
2023/04/10 05:55:56;;;;;;;7.50;5.47;;;13.90;83.20;;;;;;5013887;28;20030;-70
2023/04/10 05:58:21;;;;;;;7.18;5.72;;;13.90;83.20;;;;;;5014161;28;20097;-70
2023/04/10 06:00:47;;;;;;;7.18;5.32;;;13.90;83.50;;;;;;5013383;28;20022;-70
2023/04/10 06:03:12;;;;;;;6.22;5.63;;;13.90;83.30;;;;;;5014499;28;20371;-70
2023/04/10 06:05:38;;;;;;;8.57;6.10;;;13.90;83.30;;;;;;5013915;28;20468;-70
2023/04/10 06:08:03;;;;;;;6.25;5.57;;;13.90;83.60;;;;;;5013834;28;20030;-70
2023/04/10 06:10:29;;;;;;;7.05;5.85;;;13.90;83.50;;;;;;5013909;28;20017;-70
2023/04/10 06:12:55;;;;;;;5.38;4.88;;;13.90;83.30;;;;;;5013956;28;20026;-70
2023/04/10 06:15:21;;;;;;;6.43;5.80;;;13.90;83.20;;;;;;5013195;28;20036;-70
2023/04/10 06:17:46;;;;;;;7.63;5.25;;;13.80;83.40;;;;;;5013584;28;20083;-70
2023/04/10 06:20:12;;;;;;;6.97;5.32;;;13.90;83.20;;;;;;5013086;28;20018;-71
2023/04/10 06:22:38;;;;;;;6.72;5.50;;;13.90;83.30;;;;;;5013794;28;20471;-70
2023/04/10 06:25:04;;;;;;;10.35;5.40;;;13.90;83.40;;;;;;5013459;28;20022;-70
2023/04/10 06:27:32;;;;;;;6.20;5.40;;;13.90;83.40;;;;;;5013435;28;20430;-70
2023/04/10 06:29:58;;;;;;;8.35;6.30;;;13.90;83.50;;;;;;5013147;28;20097;-70
2023/04/10 06:32:23;;;;;;;7.50;5.50;;;13.90;83.60;;;;;;5013531;28;20068;-70
2023/04/10 06:34:49;;;;;;;10.45;6.28;;;13.90;83.60;;;;;;5013433;28;20022;-70
2023/04/10 06:37:14;;;;;;;7.60;5.68;;;13.90;84.00;;;;;;5013238;28;20479;-70
2023/04/10 06:39:40;;;;;;;8.55;5.68;;;13.90;83.70;;;;;;5013553;28;20014;-70
2023/04/10 06:42:05;;;;;;;7.78;6.00;;;13.80;83.60;;;;;;5013054;28;20030;-70
2023/04/10 06:44:31;;;;;;;7.50;5.70;;;13.90;83.80;;;;;;5013100;28;20030;-70
2023/04/10 06:46:56;;;;;;;6.80;5.60;;;13.90;83.80;;;;;;5013108;28;20026;-70
2023/04/10 06:49:23;;;;;;;7.97;5.88;;;13.90;84.10;;;;;;5013240;28;20026;-70
2023/04/10 06:51:48;;;;;;;8.07;5.75;;;13.90;84.00;;;;;;5013189;28;20030;-70
2023/04/10 06:54:14;;;;;;;8.98;5.60;;;13.90;84.00;;;;;;5013326;28;20041;-70
2023/04/10 06:56:40;;;;;;;8.35;5.80;;;13.90;84.10;;;;;;5012830;28;20038;-71
2023/04/10 06:59:05;;;;;;;5.05;4.32;;;13.90;84.80;;;;;;5012729;28;20040;-71
2023/04/10 07:01:31;;;;;;;6.10;5.07;;;14.00;85.30;;;;;;5013087;28;20029;-72
2023/04/10 07:03:56;;;;;;;6.30;5.35;;;14.00;85.40;;;;;;5013337;28;20459;-70
2023/04/10 07:06:22;;;;;;;7.50;5.47;;;14.00;85.10;;;;;;5012850;28;20056;-71
2023/04/10 07:08:48;;;;;;;9.00;5.60;;;14.00;84.70;;;;;;5009471;28;20387;-71
2023/04/10 07:11:14;;;;;;;7.15;5.50;;;14.00;84.20;;;;;;5012359;28;20068;-70
2023/04/10 07:13:40;;;;;;;5.95;5.18;;;14.00;84.10;;;;;;5011873;28;20046;-71
2023/04/10 07:16:07;;;;;;;7.22;4.97;;;14.00;84.20;;;;;;5012370;28;20034;-70
2023/04/10 07:18:34;;;;;;;7.18;5.53;;;14.10;84.20;;;;;;5012735;28;20022;-71
2023/04/10 07:21:01;;;;;;;7.30;5.53;;;14.00;84.20;;;;;;5012322;28;20032;-71
2023/04/10 07:23:26;;;;;;;7.43;5.03;;;14.10;84.20;;;;;;5011091;28;20508;-71
2023/04/10 07:25:52;;;;;;;6.70;4.93;;;14.10;84.20;;;;;;5012246;28;20097;-71
2023/04/10 07:28:17;;;;;;;6.30;5.60;;;14.10;84.50;;;;;;5012300;28;20025;-71
2023/04/10 07:30:43;;;;;;;6.57;5.47;;;14.10;84.60;;;;;;5012267;28;20110;-71
2023/04/10 07:33:08;;;;;;;10.95;5.63;;;14.10;84.60;;;;;;5013904;28;20471;-70
2023/04/10 07:35:35;;;;;;;5.47;4.68;;;14.10;84.30;;;;;;4998907;28;20033;-71
2023/04/10 07:38:01;;;;;;;7.20;5.50;;;14.20;84.40;;;;;;5016164;28;20507;-71
2023/04/10 07:40:26;;;;;;;6.32;5.03;;;14.20;84.40;;;;;;5016340;28;20173;-71
2023/04/10 07:42:52;;;;;;;7.88;5.03;;;14.20;84.40;;;;;;5015465;28;20463;-71
2023/04/10 07:45:17;;;;;;;6.75;5.35;;;14.20;84.50;;;;;;5016501;28;20121;-71
2023/04/10 07:47:43;;;;;;;6.65;4.38;;;14.20;84.50;;;;;;5015953;28;20489;-70
2023/04/10 07:50:08;;;;;;;6.47;4.97;;;14.20;84.70;;;;;;4998591;28;20032;-71
2023/04/10 07:52:34;;;;;;;6.45;5.00;;;14.20;84.60;;;;;;5016049;28;20033;-71
2023/04/10 07:55:02;;;;;;;5.22;4.72;;;14.20;84.70;;;;;;5016182;28;20036;-71
2023/04/10 07:57:27;;;;;;;5.95;5.30;;;14.30;84.90;;;;;;5014442;28;20487;-71
2023/04/10 07:59:53;;;;;;;6.93;4.68;;;14.30;85.10;;;;;;4995885;28;20034;-71
2023/04/10 08:02:19;;;;;;;6.45;4.95;;;14.30;84.80;;;;;;5015778;28;20037;-71
2023/04/10 08:04:44;;;;;;;6.43;4.90;;;14.40;84.70;;;;;;5016161;28;20022;-71
2023/04/10 08:07:10;;;;;;;7.47;4.70;;;14.40;84.60;;;;;;5012422;28;20030;-71
2023/04/10 08:09:35;;;;;;;7.68;5.05;;;14.40;84.60;;;;;;5015844;28;20057;-70
2023/04/10 08:12:02;;;;;;;5.45;4.93;;;14.50;84.40;;;;;;5015431;28;20124;-71
2023/04/10 08:14:27;;;;;;;5.50;4.90;;;14.50;84.30;;;;;;5015801;28;20089;-70
2023/04/10 08:16:53;;;;;;;5.50;4.82;;;14.50;84.40;;;;;;5014161;28;20037;-70
2023/04/10 08:19:19;;;;;;;9.73;4.78;;;14.50;84.70;;;;;;5016137;28;20026;-70
2023/04/10 08:21:44;;;;;;;7.60;4.93;;;14.50;84.70;;;;;;5015988;28;20519;-70
2023/04/10 08:24:10;;;;;;;6.65;4.78;;;14.50;84.90;;;;;;5014837;28;20483;-70
2023/04/10 08:26:35;;;;;;;8.02;5.40;;;14.60;84.90;;;;;;5013977;28;20597;-70
2023/04/10 08:29:01;;;;;;;5.35;4.85;;;14.60;84.80;;;;;;5013724;28;20483;-71
2023/04/10 08:31:28;;;;;;;5.03;4.32;;;14.60;84.70;;;;;;5014752;28;20026;-71
2023/04/10 08:33:53;;;;;;;5.10;4.57;;;14.60;84.70;;;;;;5014129;28;20034;-71
2023/04/10 08:36:19;;;;;;;6.13;5.10;;;14.70;85.00;;;;;;5014766;28;20034;-71
2023/04/10 08:38:45;;;;;;;6.95;5.65;;;14.70;85.00;;;;;;5014928;28;20042;-71
2023/04/10 08:41:12;;;;;;;6.97;5.80;;;14.70;85.10;;;;;;5015332;28;20557;-71
2023/04/10 08:43:38;;;;;;;8.15;5.07;;;14.70;85.20;;;;;;5013782;28;20036;-71
2023/04/10 08:46:04;;;;;;;6.55;5.30;;;14.70;84.90;;;;;;5014786;28;20018;-71
2023/04/10 08:49:00;;;;;;;5.43;4.90;;;14.80;85.20;;;;;;5014381;28;20041;-70
2023/04/10 08:51:31;;;;;;;5.10;4.60;;;14.80;85.20;;;;;;5014577;28;20029;-71
2023/04/10 08:54:01;;;;;;;6.03;4.85;;;14.80;85.30;;;;;;5014836;28;20092;-71
2023/04/10 08:56:28;;;;;;;6.57;5.25;;;14.90;85.50;;;;;;5012829;28;20041;-71
2023/04/10 08:58:54;;;;;;;5.20;4.70;;;14.80;85.20;;;;;;5014851;28;20065;-69
2023/04/10 09:01:20;;;;;;;5.18;4.65;;;14.90;85.20;;;;;;4997022;28;20061;-69
2023/04/10 09:03:47;;;;;;;5.10;4.60;;;14.90;85.30;;;;;;5014565;28;20065;-71
2023/04/10 09:06:12;;;;;;;5.88;4.60;;;15.00;85.40;;;;;;5014286;28;20026;-71
2023/04/10 09:08:38;;;;;;;5.82;4.93;;;15.00;85.40;;;;;;5014215;28;20105;-70
2023/04/10 09:11:04;;;;;;;5.20;4.68;;;15.00;85.60;;;;;;5014689;28;20022;-70
2023/04/10 09:13:41;;;;;;;5.22;4.20;;;15.10;85.60;;;;;;5014336;28;20038;-70
2023/04/10 09:16:08;;;;;;;4.82;4.30;;;15.10;85.50;;;;;;5010967;28;20744;-69
2023/04/10 09:18:43;;;;;;;7.30;4.50;;;15.10;85.70;;;;;;5014181;28;20384;-70
2023/04/10 09:21:11;;;;;;;7.35;4.72;;;15.10;85.90;;;;;;5014125;28;20025;-70
2023/04/10 09:23:36;;;;;;;5.00;4.20;;;15.20;85.80;;;;;;5013855;28;20364;-70
2023/04/10 09:26:26;;;;;;;6.05;4.18;;;15.20;85.40;;;;;;5014594;28;20029;-70
2023/04/10 09:29:00;;;;;;;5.05;4.55;;;15.20;85.40;;;;;;5013361;28;20049;-70
2023/04/10 09:31:29;;;;;;;5.20;4.03;;;15.30;85.60;;;;;;5013976;28;20105;-70
2023/04/10 09:34:10;;;;;;;5.18;4.10;;;15.30;85.60;;;;;;5014844;28;20467;-70
2023/04/10 09:36:36;;;;;;;5.35;4.20;;;15.30;85.70;;;;;;4996047;28;20465;-70
2023/04/10 09:39:04;;;;;;;4.60;4.15;;;15.40;85.90;;;;;;5013965;28;20018;-72
2023/04/10 09:41:30;;;;;;;5.38;4.30;;;15.40;85.90;;;;;;5013206;28;20044;-70
2023/04/10 09:44:10;;;;;;;6.03;4.30;;;15.40;85.90;;;;;;5013519;28;20025;-71
2023/04/10 09:46:36;;;;;;;6.18;4.20;;;15.40;85.80;;;;;;5020531;28;20152;-70
2023/04/10 09:49:04;;;;;;;4.07;3.67;;;15.50;85.80;;;;;;5014214;28;20117;-70
2023/04/10 09:51:34;;;;;;;6.35;4.50;;;15.50;85.90;;;;;;5014009;28;20451;-70
2023/04/10 09:54:01;;;;;;;6.22;3.28;;;15.60;86.30;;;;;;5013914;28;20479;-72
2023/04/10 09:56:28;;;;;;;3.92;3.28;;;15.60;87.20;;;;;;5016131;28;20037;-70
2023/04/10 09:58:58;;;;;;;6.60;3.85;;;15.60;87.50;;;;;;5012274;28;20148;-70
2023/04/10 10:01:27;;;;;;;3.75;3.28;;;15.70;86.90;;;;;;5012955;28;20044;-70
2023/04/10 10:03:54;;;;;;;5.82;3.33;;;15.70;87.70;;;;;;4995782;28;20030;-71
2023/04/10 10:06:20;;;;;;;2.65;2.42;;;15.70;87.60;;;;;;5012349;28;20029;-71
2023/04/10 10:08:47;;;;;;;4.40;3.42;;;15.80;88.20;;;;;;5012283;28;20273;-71
2023/04/10 10:11:16;;;;;;;4.07;2.50;;;15.80;87.90;;;;;;5013320;28;20022;-71
2023/04/10 10:13:53;;;;;;;3.50;2.78;;;15.90;88.80;;;;;;5013642;28;20490;-71
2023/04/10 10:16:32;;;;;;;3.80;3.17;;;16.00;88.30;;;;;;5013225;28;20034;-71
2023/04/10 10:19:09;;;;;;;5.20;2.50;;;16.00;88.30;;;;;;5013659;28;20034;-71
2023/04/10 10:21:36;;;;;;;3.83;2.85;;;16.00;89.20;;;;;;4995345;28;20128;-71
2023/04/10 10:24:06;;;;;;;5.00;3.38;;;16.00;88.70;;;;;;5013378;28;20401;-71
2023/04/10 10:26:34;;;;;;;3.22;2.92;;;16.10;88.40;;;;;;5013315;28;20037;-71
2023/04/10 10:29:04;;;;;;;4.82;3.22;;;16.10;88.30;;;;;;5013711;28;20088;-71
2023/04/10 10:31:32;;;;;;;3.53;3.22;;;16.20;88.50;;;;;;5011672;28;20393;-72
2023/04/10 10:34:03;;;;;;;3.40;2.90;;;16.20;88.30;;;;;;5012705;28;20018;-72
2023/04/10 10:36:30;;;;;;;3.38;2.95;;;16.20;88.40;;;;;;5012488;28;20022;-72
2023/04/10 10:39:33;;;;;;;3.60;2.40;;;16.20;88.30;;;;;;5013177;28;20029;-72
2023/04/10 10:42:29;;;;;;;2.70;2.45;;;16.30;88.10;;;;;;5013106;28;20025;-71
2023/04/10 10:45:12;;;;;;;2.85;2.15;;;16.40;88.50;;;;;;5013599;28;20026;-71
2023/04/10 10:47:52;;;;;;;2.88;2.45;;;16.40;88.60;;;;;;5013150;28;20108;-71
2023/04/10 10:50:18;;;;;;;5.80;4.20;;;16.40;88.60;;;;;;5012300;28;20026;-71
2023/04/10 10:52:54;;;;;;;3.42;3.13;;;16.40;87.10;;;;;;5013045;28;20029;-71
2023/04/10 10:55:30;;;;;;;4.40;2.65;;;16.40;87.60;;;;;;5011645;28;20462;-71
2023/04/10 10:58:06;;;;;;;5.63;2.80;;;16.50;87.90;;;;;;5011812;28;20391;-71
2023/04/10 11:01:05;;;;;;;5.07;3.22;;;16.50;88.10;;;;;;4994643;28;20056;-72
2023/04/10 11:03:30;;;;;;;7.00;4.55;;;16.50;87.50;;;;;;4958800;28;20049;-71
2023/04/10 11:06:06;;;;;;;5.13;4.55;;;16.50;86.80;;;;;;5012060;28;20371;-72
2023/04/10 11:08:34;;;;;;;4.47;4.05;;;16.60;86.60;;;;;;5012092;28;20483;-72
2023/04/10 11:11:07;;;;;;;4.57;4.15;;;16.60;86.70;;;;;;4995022;28;20045;-72
2023/04/10 11:13:37;;;;;;;5.97;3.92;;;16.60;86.20;;;;;;4994527;28;20040;-72
2023/04/10 11:16:05;;;;;;;4.82;4.15;;;16.70;86.30;;;;;;5012763;28;20064;-72
2023/04/10 11:18:46;;;;;;;4.20;3.80;;;16.70;86.20;;;;;;5012764;28;20044;-72
2023/04/10 11:21:19;;;;;;;4.30;3.58;;;16.70;86.30;;;;;;5012721;28;20510;-72
2023/04/10 11:24:05;;;;;;;4.07;3.33;;;16.70;86.70;;;;;;5017531;28;20022;-71
2023/04/10 11:26:43;;;;;;;3.97;3.58;;;16.80;86.80;;;;;;5004735;28;20077;-72
2023/04/10 11:29:26;;;;;;;4.85;3.80;;;16.80;86.30;;;;;;5012669;28;20068;-72
2023/04/10 11:31:59;;;;;;;4.97;3.97;;;16.80;86.20;;;;;;5011808;28;20045;-70
2023/04/10 11:34:29;;;;;;;3.33;3.03;;;16.80;86.80;;;;;;5010433;28;20076;-70
2023/04/10 11:36:55;;;;;;;3.05;2.75;;;16.80;86.50;;;;;;4992879;28;20034;-70
2023/04/10 11:39:21;;;;;;;3.22;2.90;;;16.90;86.80;;;;;;5011916;28;20492;-70
2023/04/10 11:41:49;;;;;;;4.28;3.75;;;16.90;86.70;;;;;;5011698;28;20100;-70
2023/04/10 11:44:26;;;;;;;4.85;3.67;;;16.90;86.40;;;;;;5012566;28;20104;-70
2023/04/10 11:46:52;;;;;;;5.20;3.40;;;16.90;86.30;;;;;;5012480;28;20018;-70
2023/04/10 11:49:20;;;;;;;8.18;4.53;;;17.00;86.70;;;;;;5012348;28;20026;-70
2023/04/10 11:51:47;;;;;;;6.88;4.45;;;17.00;85.70;;;;;;5010555;28;20401;-70
2023/04/10 11:54:15;;;;;;;5.82;4.15;;;17.00;85.90;;;;;;5010906;28;20037;-70
2023/04/10 11:56:43;;;;;;;4.60;3.35;;;17.00;86.50;;;;;;5005254;28;20034;-70
2023/04/10 11:59:11;;;;;;;7.07;4.75;;;17.10;86.80;;;;;;5012132;28;20057;-70
2023/04/10 12:01:37;;;;;;;6.43;4.18;;;17.00;86.20;;;;;;4994242;28;20034;-70
2023/04/10 12:04:03;;;;;;;5.68;4.22;;;17.10;86.50;;;;;;4993160;28;20036;-71
2023/04/10 12:06:30;;;;;;;6.85;4.53;;;17.10;87.20;;;;;;5012200;28;20037;-71
2023/04/10 12:08:55;;;;;;;6.22;4.18;;;17.10;88.20;;;;;;5012340;28;20026;-72
2023/04/10 12:11:23;;;;;;;5.72;3.40;;;17.10;88.70;;;;;;5012237;28;20025;-71
2023/04/10 12:13:53;;;;;;;4.72;3.17;;;17.10;88.40;;;;;;5011586;28;20018;-71
2023/04/10 12:16:20;;;;;;;4.72;3.42;;;17.20;89.90;;;;;;5011620;28;20030;-71
2023/04/10 12:18:46;;;;;;;4.70;3.60;;;17.10;90.00;;;;;;5013503;28;20071;-70
2023/04/10 12:21:12;;;;;;;4.30;3.90;;;17.20;90.20;;;;;;5015544;28;20033;-71
2023/04/10 12:23:38;;;;;;;6.75;4.03;;;17.20;90.40;;;;;;5015312;28;20022;-72
2023/04/10 12:26:14;;;;;;;5.53;3.92;;;17.20;90.50;;;;;;5014786;28;20057;-71
2023/04/10 12:28:42;;;;;;;4.75;4.03;;;17.20;90.50;;;;;;5015517;28;20095;-72
2023/04/10 12:31:08;;;;;;;5.15;4.30;;;17.20;90.80;;;;;;5015639;28;20025;-72
2023/04/10 12:33:34;;;;;;;6.95;4.65;;;17.20;91.00;;;;;;5015327;28;20033;-71
2023/04/10 12:36:00;;;;;;;4.80;4.28;;;17.30;91.30;;;;;;5015627;28;20025;-71
2023/04/10 12:38:36;;;;;;;4.80;4.30;;;17.30;91.70;;;;;;5014874;28;20562;-71
2023/04/10 12:41:02;;;;;;;5.10;4.57;;;17.30;91.90;;;;;;5014386;28;20395;-72
2023/04/10 12:43:32;;;;;;;5.13;4.63;;;17.30;91.80;;;;;;5014627;28;20033;-71
2023/04/10 12:45:58;;;;;;;5.20;4.65;;;17.30;92.10;;;;;;5014908;28;20029;-70
2023/04/10 12:48:24;;;;;;;5.55;4.05;;;17.40;92.20;;;;;;5015341;28;20041;-71